sensor_id;sensor_type;location;lat;lon;timestamp;P1;durP1;ratioP1;P2;durP2;ratioP2
60030;SDS011;45901;47.600;9.890;2022-12-07T00:01:40;67.27;;;20.27;;
60030;SDS011;45901;47.600;9.890;2022-12-07T00:04:10;36.23;;;20.87;;
60030;SDS011;45901;47.600;9.890;2022-12-07T00:06:40;75.70;;;20.57;;
60030;SDS011;45901;47.600;9.890;2022-12-07T00:09:10;81.70;;;20.03;;
60030;SDS011;45901;47.600;9.890;2022-12-07T00:11:39;55.20;;;19.80;;
60030;SDS011;45901;47.600;9.890;2022-12-07T00:14:07;188.73;;;22.83;;
60030;SDS011;45901;47.600;9.890;2022-12-07T00:16:39;51.13;;;19.40;;
60030;SDS011;45901;47.600;9.890;2022-12-07T00:19:06;44.60;;;18.97;;
60030;SDS011;45901;47.600;9.890;2022-12-07T00:21:35;34.80;;;17.50;;
60030;SDS011;45901;47.600;9.890;2022-12-07T00:24:03;137.67;;;20.67;;
60030;SDS011;45901;47.600;9.890;2022-12-07T00:26:32;73.30;;;19.63;;
60030;SDS011;45901;47.600;9.890;2022-12-07T00:29:02;32.50;;;17.93;;
60030;SDS011;45901;47.600;9.890;2022-12-07T00:31:35;27.90;;;15.13;;
60030;SDS011;45901;47.600;9.890;2022-12-07T00:34:04;82.73;;;18.47;;
60030;SDS011;45901;47.600;9.890;2022-12-07T00:36:32;43.13;;;17.23;;
60030;SDS011;45901;47.600;9.890;2022-12-07T00:39:00;32.07;;;17.10;;
60030;SDS011;45901;47.600;9.890;2022-12-07T00:41:27;53.53;;;18.00;;
60030;SDS011;45901;47.600;9.890;2022-12-07T00:43:56;42.63;;;19.27;;
60030;SDS011;45901;47.600;9.890;2022-12-07T00:46:23;38.63;;;18.33;;
60030;SDS011;45901;47.600;9.890;2022-12-07T00:48:53;31.90;;;18.90;;
60030;SDS011;45901;47.600;9.890;2022-12-07T00:51:21;28.43;;;16.97;;
60030;SDS011;45901;47.600;9.890;2022-12-07T00:53:50;27.33;;;17.83;;
60030;SDS011;45901;47.600;9.890;2022-12-07T00:56:18;29.40;;;17.83;;
60030;SDS011;45901;47.600;9.890;2022-12-07T00:58:49;24.17;;;15.83;;
60030;SDS011;45901;47.600;9.890;2022-12-07T01:01:19;25.13;;;15.73;;
60030;SDS011;45901;47.600;9.890;2022-12-07T01:03:49;25.07;;;16.03;;
60030;SDS011;45901;47.600;9.890;2022-12-07T01:06:21;23.63;;;14.87;;
60030;SDS011;45901;47.600;9.890;2022-12-07T01:08:50;28.37;;;16.00;;
60030;SDS011;45901;47.600;9.890;2022-12-07T01:11:19;25.20;;;15.67;;
60030;SDS011;45901;47.600;9.890;2022-12-07T01:13:49;25.70;;;16.07;;
60030;SDS011;45901;47.600;9.890;2022-12-07T01:16:18;23.93;;;15.20;;
60030;SDS011;45901;47.600;9.890;2022-12-07T01:18:47;22.97;;;15.47;;
60030;SDS011;45901;47.600;9.890;2022-12-07T01:21:17;25.00;;;15.60;;
60030;SDS011;45901;47.600;9.890;2022-12-07T01:23:48;21.53;;;14.23;;
60030;SDS011;45901;47.600;9.890;2022-12-07T01:26:17;26.20;;;14.60;;
60030;SDS011;45901;47.600;9.890;2022-12-07T01:28:47;24.13;;;14.93;;
60030;SDS011;45901;47.600;9.890;2022-12-07T01:31:15;25.97;;;15.90;;
60030;SDS011;45901;47.600;9.890;2022-12-07T01:33:45;22.33;;;13.83;;
60030;SDS011;45901;47.600;9.890;2022-12-07T01:36:16;26.60;;;15.63;;
60030;SDS011;45901;47.600;9.890;2022-12-07T01:38:49;23.90;;;14.67;;
60030;SDS011;45901;47.600;9.890;2022-12-07T01:41:18;26.93;;;15.97;;
60030;SDS011;45901;47.600;9.890;2022-12-07T01:44:07;22.60;;;14.37;;
60030;SDS011;45901;47.600;9.890;2022-12-07T01:46:48;24.93;;;15.13;;
60030;SDS011;45901;47.600;9.890;2022-12-07T01:49:27;24.93;;;14.77;;
60030;SDS011;45901;47.600;9.890;2022-12-07T01:52:12;24.23;;;14.83;;
60030;SDS011;45901;47.600;9.890;2022-12-07T01:54:45;27.27;;;15.43;;
60030;SDS011;45901;47.600;9.890;2022-12-07T01:57:15;22.47;;;14.57;;
60030;SDS011;45901;47.600;9.890;2022-12-07T01:59:44;20.63;;;12.60;;
60030;SDS011;45901;47.600;9.890;2022-12-07T02:02:17;21.60;;;13.77;;
60030;SDS011;45901;47.600;9.890;2022-12-07T02:04:48;22.47;;;13.80;;
60030;SDS011;45901;47.600;9.890;2022-12-07T02:07:38;22.43;;;14.17;;
60030;SDS011;45901;47.600;9.890;2022-12-07T02:10:16;23.67;;;14.07;;
60030;SDS011;45901;47.600;9.890;2022-12-07T02:12:47;22.77;;;14.57;;
60030;SDS011;45901;47.600;9.890;2022-12-07T02:15:18;22.47;;;14.73;;
60030;SDS011;45901;47.600;9.890;2022-12-07T02:17:49;21.83;;;13.60;;
60030;SDS011;45901;47.600;9.890;2022-12-07T02:20:27;26.50;;;15.20;;
60030;SDS011;45901;47.600;9.890;2022-12-07T02:29:37;26.93;;;15.07;;
60030;SDS011;45901;47.600;9.890;2022-12-07T02:32:13;30.53;;;16.47;;
60030;SDS011;45901;47.600;9.890;2022-12-07T02:34:47;30.23;;;16.63;;
60030;SDS011;45901;47.600;9.890;2022-12-07T02:37:27;38.33;;;19.10;;
60030;SDS011;45901;47.600;9.890;2022-12-07T02:40:04;46.17;;;20.57;;
60030;SDS011;45901;47.600;9.890;2022-12-07T02:42:40;47.23;;;22.53;;
60030;SDS011;45901;47.600;9.890;2022-12-07T02:45:18;52.00;;;23.07;;
60030;SDS011;45901;47.600;9.890;2022-12-07T02:47:51;40.70;;;21.47;;
60030;SDS011;45901;47.600;9.890;2022-12-07T02:50:23;49.07;;;22.73;;
60030;SDS011;45901;47.600;9.890;2022-12-07T02:52:52;45.17;;;22.90;;
60030;SDS011;45901;47.600;9.890;2022-12-07T02:55:20;42.60;;;22.37;;
60030;SDS011;45901;47.600;9.890;2022-12-07T02:58:05;43.70;;;22.77;;
60030;SDS011;45901;47.600;9.890;2022-12-07T03:01:01;43.07;;;22.17;;
60030;SDS011;45901;47.600;9.890;2022-12-07T03:03:39;42.33;;;22.27;;
60030;SDS011;45901;47.600;9.890;2022-12-07T03:06:14;43.23;;;21.43;;
60030;SDS011;45901;47.600;9.890;2022-12-07T03:08:49;39.10;;;20.40;;
60030;SDS011;45901;47.600;9.890;2022-12-07T03:11:25;41.23;;;22.27;;
60030;SDS011;45901;47.600;9.890;2022-12-07T03:14:07;40.03;;;21.93;;
60030;SDS011;45901;47.600;9.890;2022-12-07T03:16:46;59.53;;;23.07;;
60030;SDS011;45901;47.600;9.890;2022-12-07T03:19:31;50.47;;;23.30;;
60030;SDS011;45901;47.600;9.890;2022-12-07T03:22:01;45.47;;;21.83;;
60030;SDS011;45901;47.600;9.890;2022-12-07T03:24:34;47.10;;;23.97;;
60030;SDS011;45901;47.600;9.890;2022-12-07T03:27:06;88.77;;;22.80;;
60030;SDS011;45901;47.600;9.890;2022-12-07T03:29:40;45.80;;;22.30;;
60030;SDS011;45901;47.600;9.890;2022-12-07T03:32:16;56.27;;;23.13;;
60030;SDS011;45901;47.600;9.890;2022-12-07T03:34:52;40.47;;;22.07;;
60030;SDS011;45901;47.600;9.890;2022-12-07T03:37:26;62.20;;;23.50;;
60030;SDS011;45901;47.600;9.890;2022-12-07T03:40:02;41.57;;;23.30;;
60030;SDS011;45901;47.600;9.890;2022-12-07T03:42:37;59.33;;;22.40;;
60030;SDS011;45901;47.600;9.890;2022-12-07T03:45:05;76.53;;;23.70;;
60030;SDS011;45901;47.600;9.890;2022-12-07T03:47:36;48.60;;;24.23;;
60030;SDS011;45901;47.600;9.890;2022-12-07T03:50:15;47.67;;;25.30;;
60030;SDS011;45901;47.600;9.890;2022-12-07T03:52:53;47.90;;;23.57;;
60030;SDS011;45901;47.600;9.890;2022-12-07T03:55:46;41.03;;;22.53;;
60030;SDS011;45901;47.600;9.890;2022-12-07T03:58:18;129.83;;;26.97;;
60030;SDS011;45901;47.600;9.890;2022-12-07T04:00:48;60.10;;;23.60;;
60030;SDS011;45901;47.600;9.890;2022-12-07T04:03:18;74.97;;;26.30;;
60030;SDS011;45901;47.600;9.890;2022-12-07T04:05:46;60.83;;;25.33;;
60030;SDS011;45901;47.600;9.890;2022-12-07T04:08:13;69.70;;;25.37;;
60030;SDS011;45901;47.600;9.890;2022-12-07T04:10:40;68.93;;;21.63;;
60030;SDS011;45901;47.600;9.890;2022-12-07T04:13:07;89.17;;;23.73;;
60030;SDS011;45901;47.600;9.890;2022-12-07T04:15:35;93.27;;;24.80;;
60030;SDS011;45901;47.600;9.890;2022-12-07T04:18:02;111.13;;;26.37;;
60030;SDS011;45901;47.600;9.890;2022-12-07T04:20:31;59.77;;;22.37;;
60030;SDS011;45901;47.600;9.890;2022-12-07T04:22:58;52.77;;;25.90;;
60030;SDS011;45901;47.600;9.890;2022-12-07T04:25:25;63.23;;;24.90;;
60030;SDS011;45901;47.600;9.890;2022-12-07T04:27:52;43.43;;;23.67;;
60030;SDS011;45901;47.600;9.890;2022-12-07T04:30:20;38.50;;;21.97;;
60030;SDS011;45901;47.600;9.890;2022-12-07T04:32:47;41.87;;;24.70;;
60030;SDS011;45901;47.600;9.890;2022-12-07T04:35:14;43.93;;;23.70;;
60030;SDS011;45901;47.600;9.890;2022-12-07T04:37:43;39.83;;;23.60;;
60030;SDS011;45901;47.600;9.890;2022-12-07T04:40:10;41.47;;;21.73;;
60030;SDS011;45901;47.600;9.890;2022-12-07T04:42:39;38.90;;;21.97;;
60030;SDS011;45901;47.600;9.890;2022-12-07T04:45:07;43.53;;;21.00;;
60030;SDS011;45901;47.600;9.890;2022-12-07T04:47:35;37.40;;;21.70;;
60030;SDS011;45901;47.600;9.890;2022-12-07T04:50:03;44.10;;;22.00;;
60030;SDS011;45901;47.600;9.890;2022-12-07T04:52:31;37.77;;;21.97;;
60030;SDS011;45901;47.600;9.890;2022-12-07T04:55:00;35.13;;;20.70;;
60030;SDS011;45901;47.600;9.890;2022-12-07T04:57:27;35.27;;;19.87;;
60030;SDS011;45901;47.600;9.890;2022-12-07T04:59:54;34.70;;;18.70;;
60030;SDS011;45901;47.600;9.890;2022-12-07T05:02:22;31.47;;;18.27;;
60030;SDS011;45901;47.600;9.890;2022-12-07T05:04:59;32.10;;;18.07;;
60030;SDS011;45901;47.600;9.890;2022-12-07T05:07:26;33.57;;;19.10;;
60030;SDS011;45901;47.600;9.890;2022-12-07T05:09:53;34.47;;;18.57;;
60030;SDS011;45901;47.600;9.890;2022-12-07T05:12:22;35.83;;;18.30;;
60030;SDS011;45901;47.600;9.890;2022-12-07T05:14:49;31.47;;;18.40;;
60030;SDS011;45901;47.600;9.890;2022-12-07T05:17:16;32.13;;;17.30;;
60030;SDS011;45901;47.600;9.890;2022-12-07T05:19:44;29.13;;;18.17;;
60030;SDS011;45901;47.600;9.890;2022-12-07T05:22:11;32.00;;;17.53;;
60030;SDS011;45901;47.600;9.890;2022-12-07T05:24:39;33.27;;;17.30;;
60030;SDS011;45901;47.600;9.890;2022-12-07T05:27:06;32.83;;;17.63;;
60030;SDS011;45901;47.600;9.890;2022-12-07T05:29:35;29.77;;;17.50;;
60030;SDS011;45901;47.600;9.890;2022-12-07T05:32:02;30.37;;;17.20;;
60030;SDS011;45901;47.600;9.890;2022-12-07T05:34:29;28.90;;;16.93;;
60030;SDS011;45901;47.600;9.890;2022-12-07T05:36:56;25.27;;;14.57;;
60030;SDS011;45901;47.600;9.890;2022-12-07T05:39:24;26.47;;;15.50;;
60030;SDS011;45901;47.600;9.890;2022-12-07T05:41:51;28.17;;;14.47;;
60030;SDS011;45901;47.600;9.890;2022-12-07T05:44:37;29.93;;;14.57;;
60030;SDS011;45901;47.600;9.890;2022-12-07T05:47:04;25.37;;;14.63;;
60030;SDS011;45901;47.600;9.890;2022-12-07T05:49:32;30.73;;;13.87;;
60030;SDS011;45901;47.600;9.890;2022-12-07T05:51:59;23.03;;;13.27;;
60030;SDS011;45901;47.600;9.890;2022-12-07T05:54:27;32.70;;;20.17;;
60030;SDS011;45901;47.600;9.890;2022-12-07T05:56:55;28.73;;;16.07;;
60030;SDS011;45901;47.600;9.890;2022-12-07T05:59:22;25.47;;;15.17;;
60030;SDS011;45901;47.600;9.890;2022-12-07T06:01:50;26.47;;;15.53;;
60030;SDS011;45901;47.600;9.890;2022-12-07T06:04:18;23.70;;;13.87;;
60030;SDS011;45901;47.600;9.890;2022-12-07T06:06:46;24.17;;;13.80;;
60030;SDS011;45901;47.600;9.890;2022-12-07T06:09:13;23.77;;;14.23;;
60030;SDS011;45901;47.600;9.890;2022-12-07T06:11:41;25.67;;;14.70;;
60030;SDS011;45901;47.600;9.890;2022-12-07T06:14:26;25.70;;;13.60;;
60030;SDS011;45901;47.600;9.890;2022-12-07T06:16:54;26.90;;;15.87;;
60030;SDS011;45901;47.600;9.890;2022-12-07T06:19:22;28.37;;;15.97;;
60030;SDS011;45901;47.600;9.890;2022-12-07T06:21:49;27.63;;;16.03;;
60030;SDS011;45901;47.600;9.890;2022-12-07T06:24:16;28.47;;;15.93;;
60030;SDS011;45901;47.600;9.890;2022-12-07T06:26:44;29.27;;;16.13;;
60030;SDS011;45901;47.600;9.890;2022-12-07T06:29:12;28.13;;;16.23;;
60030;SDS011;45901;47.600;9.890;2022-12-07T06:31:40;27.23;;;15.50;;
60030;SDS011;45901;47.600;9.890;2022-12-07T06:34:10;26.80;;;15.03;;
60030;SDS011;45901;47.600;9.890;2022-12-07T06:36:39;24.80;;;14.23;;
60030;SDS011;45901;47.600;9.890;2022-12-07T06:39:07;27.47;;;15.33;;
60030;SDS011;45901;47.600;9.890;2022-12-07T06:41:35;25.63;;;14.53;;
60030;SDS011;45901;47.600;9.890;2022-12-07T06:44:03;25.43;;;13.40;;
60030;SDS011;45901;47.600;9.890;2022-12-07T06:46:31;24.37;;;13.97;;
60030;SDS011;45901;47.600;9.890;2022-12-07T06:48:58;24.37;;;13.43;;
60030;SDS011;45901;47.600;9.890;2022-12-07T06:51:26;23.33;;;13.47;;
60030;SDS011;45901;47.600;9.890;2022-12-07T06:53:54;25.77;;;14.00;;
60030;SDS011;45901;47.600;9.890;2022-12-07T06:56:22;25.43;;;14.20;;
60030;SDS011;45901;47.600;9.890;2022-12-07T06:58:49;23.73;;;12.77;;
60030;SDS011;45901;47.600;9.890;2022-12-07T07:01:17;20.03;;;11.87;;
60030;SDS011;45901;47.600;9.890;2022-12-07T07:03:46;24.80;;;12.53;;
60030;SDS011;45901;47.600;9.890;2022-12-07T07:06:14;19.77;;;12.13;;
60030;SDS011;45901;47.600;9.890;2022-12-07T07:08:42;19.97;;;11.57;;
60030;SDS011;45901;47.600;9.890;2022-12-07T07:11:10;19.03;;;11.73;;
60030;SDS011;45901;47.600;9.890;2022-12-07T07:13:38;22.90;;;12.67;;
60030;SDS011;45901;47.600;9.890;2022-12-07T07:16:06;20.60;;;12.13;;
60030;SDS011;45901;47.600;9.890;2022-12-07T07:18:34;20.63;;;11.13;;
60030;SDS011;45901;47.600;9.890;2022-12-07T07:21:01;19.40;;;11.33;;
60030;SDS011;45901;47.600;9.890;2022-12-07T07:23:29;17.90;;;11.20;;
60030;SDS011;45901;47.600;9.890;2022-12-07T07:25:57;21.00;;;12.17;;
60030;SDS011;45901;47.600;9.890;2022-12-07T07:28:25;21.93;;;12.27;;
60030;SDS011;45901;47.600;9.890;2022-12-07T07:30:53;19.53;;;11.63;;
60030;SDS011;45901;47.600;9.890;2022-12-07T07:33:20;21.60;;;11.63;;
60030;SDS011;45901;47.600;9.890;2022-12-07T07:35:47;24.37;;;11.30;;
60030;SDS011;45901;47.600;9.890;2022-12-07T07:38:14;23.13;;;13.10;;
60030;SDS011;45901;47.600;9.890;2022-12-07T07:40:42;18.73;;;10.93;;
60030;SDS011;45901;47.600;9.890;2022-12-07T07:43:10;18.03;;;10.53;;
60030;SDS011;45901;47.600;9.890;2022-12-07T07:45:37;16.80;;;10.63;;
60030;SDS011;45901;47.600;9.890;2022-12-07T07:48:05;17.90;;;11.23;;
60030;SDS011;45901;47.600;9.890;2022-12-07T07:50:33;17.80;;;10.47;;
60030;SDS011;45901;47.600;9.890;2022-12-07T07:53:00;18.13;;;10.57;;
60030;SDS011;45901;47.600;9.890;2022-12-07T07:55:27;19.17;;;11.73;;
60030;SDS011;45901;47.600;9.890;2022-12-07T07:57:54;18.43;;;11.80;;
60030;SDS011;45901;47.600;9.890;2022-12-07T08:00:23;20.57;;;13.43;;
60030;SDS011;45901;47.600;9.890;2022-12-07T08:02:50;18.50;;;11.67;;
60030;SDS011;45901;47.600;9.890;2022-12-07T08:05:17;17.20;;;10.07;;
60030;SDS011;45901;47.600;9.890;2022-12-07T08:07:45;15.93;;;10.43;;
60030;SDS011;45901;47.600;9.890;2022-12-07T08:10:12;17.17;;;10.77;;
60030;SDS011;45901;47.600;9.890;2022-12-07T08:12:40;20.40;;;10.80;;
60030;SDS011;45901;47.600;9.890;2022-12-07T08:15:29;15.90;;;10.20;;
60030;SDS011;45901;47.600;9.890;2022-12-07T08:17:57;15.93;;;10.17;;
60030;SDS011;45901;47.600;9.890;2022-12-07T08:20:24;18.87;;;11.60;;
60030;SDS011;45901;47.600;9.890;2022-12-07T08:22:52;16.50;;;10.63;;
60030;SDS011;45901;47.600;9.890;2022-12-07T08:25:19;16.37;;;10.30;;
60030;SDS011;45901;47.600;9.890;2022-12-07T08:27:47;17.23;;;11.40;;
60030;SDS011;45901;47.600;9.890;2022-12-07T08:30:14;19.77;;;11.40;;
60030;SDS011;45901;47.600;9.890;2022-12-07T08:32:43;20.47;;;12.20;;
60030;SDS011;45901;47.600;9.890;2022-12-07T08:35:11;18.07;;;11.07;;
60030;SDS011;45901;47.600;9.890;2022-12-07T08:37:39;17.63;;;11.40;;
60030;SDS011;45901;47.600;9.890;2022-12-07T08:40:07;20.63;;;12.63;;
60030;SDS011;45901;47.600;9.890;2022-12-07T08:42:36;20.13;;;11.60;;
60030;SDS011;45901;47.600;9.890;2022-12-07T08:45:06;17.77;;;10.60;;
60030;SDS011;45901;47.600;9.890;2022-12-07T08:47:37;19.10;;;10.97;;
60030;SDS011;45901;47.600;9.890;2022-12-07T08:50:11;18.70;;;11.33;;
60030;SDS011;45901;47.600;9.890;2022-12-07T08:52:39;16.67;;;10.80;;
60030;SDS011;45901;47.600;9.890;2022-12-07T08:55:09;18.40;;;10.53;;
60030;SDS011;45901;47.600;9.890;2022-12-07T08:57:38;19.80;;;11.57;;
60030;SDS011;45901;47.600;9.890;2022-12-07T09:00:08;20.23;;;11.63;;
60030;SDS011;45901;47.600;9.890;2022-12-07T09:02:36;18.93;;;9.93;;
60030;SDS011;45901;47.600;9.890;2022-12-07T09:05:04;18.60;;;10.30;;
60030;SDS011;45901;47.600;9.890;2022-12-07T09:07:33;16.00;;;10.17;;
60030;SDS011;45901;47.600;9.890;2022-12-07T09:10:02;18.67;;;10.20;;
60030;SDS011;45901;47.600;9.890;2022-12-07T09:12:30;16.27;;;10.43;;
60030;SDS011;45901;47.600;9.890;2022-12-07T09:14:57;16.63;;;10.97;;
60030;SDS011;45901;47.600;9.890;2022-12-07T09:17:26;17.80;;;9.73;;
60030;SDS011;45901;47.600;9.890;2022-12-07T09:19:53;17.57;;;8.80;;
60030;SDS011;45901;47.600;9.890;2022-12-07T09:22:20;15.00;;;9.30;;
60030;SDS011;45901;47.600;9.890;2022-12-07T09:24:49;14.20;;;7.83;;
60030;SDS011;45901;47.600;9.890;2022-12-07T09:27:16;14.10;;;7.83;;
60030;SDS011;45901;47.600;9.890;2022-12-07T09:29:44;13.07;;;7.53;;
60030;SDS011;45901;47.600;9.890;2022-12-07T09:32:11;10.77;;;7.43;;
60030;SDS011;45901;47.600;9.890;2022-12-07T09:34:38;11.37;;;6.67;;
60030;SDS011;45901;47.600;9.890;2022-12-07T09:37:05;11.07;;;6.67;;
60030;SDS011;45901;47.600;9.890;2022-12-07T09:39:33;13.20;;;7.40;;
60030;SDS011;45901;47.600;9.890;2022-12-07T09:42:03;10.83;;;6.83;;
60030;SDS011;45901;47.600;9.890;2022-12-07T09:44:32;16.37;;;7.80;;
60030;SDS011;45901;47.600;9.890;2022-12-07T09:47:01;11.43;;;6.50;;
60030;SDS011;45901;47.600;9.890;2022-12-07T09:49:29;11.53;;;7.00;;
60030;SDS011;45901;47.600;9.890;2022-12-07T09:51:59;11.83;;;7.27;;
60030;SDS011;45901;47.600;9.890;2022-12-07T09:54:29;10.90;;;7.20;;
60030;SDS011;45901;47.600;9.890;2022-12-07T09:56:57;11.53;;;7.60;;
60030;SDS011;45901;47.600;9.890;2022-12-07T09:59:27;10.73;;;7.27;;
60030;SDS011;45901;47.600;9.890;2022-12-07T10:01:55;11.27;;;6.20;;
60030;SDS011;45901;47.600;9.890;2022-12-07T10:04:42;9.73;;;5.60;;
60030;SDS011;45901;47.600;9.890;2022-12-07T10:07:11;9.53;;;6.53;;
60030;SDS011;45901;47.600;9.890;2022-12-07T10:09:38;9.93;;;6.70;;
60030;SDS011;45901;47.600;9.890;2022-12-07T10:12:06;7.97;;;5.40;;
60030;SDS011;45901;47.600;9.890;2022-12-07T10:14:38;8.63;;;5.07;;
60030;SDS011;45901;47.600;9.890;2022-12-07T10:22:56;7.53;;;4.93;;
60030;SDS011;45901;47.600;9.890;2022-12-07T10:25:27;7.60;;;5.23;;
60030;SDS011;45901;47.600;9.890;2022-12-07T10:28:00;8.53;;;5.10;;
60030;SDS011;45901;47.600;9.890;2022-12-07T10:30:46;8.07;;;4.50;;
60030;SDS011;45901;47.600;9.890;2022-12-07T10:33:30;7.43;;;5.10;;
60030;SDS011;45901;47.600;9.890;2022-12-07T10:36:01;9.20;;;5.33;;
60030;SDS011;45901;47.600;9.890;2022-12-07T10:38:45;7.00;;;4.60;;
60030;SDS011;45901;47.600;9.890;2022-12-07T10:41:14;6.43;;;4.40;;
60030;SDS011;45901;47.600;9.890;2022-12-07T10:43:51;6.73;;;4.60;;
60030;SDS011;45901;47.600;9.890;2022-12-07T10:46:36;8.73;;;5.60;;
60030;SDS011;45901;47.600;9.890;2022-12-07T10:49:43;8.00;;;5.13;;
60030;SDS011;45901;47.600;9.890;2022-12-07T10:52:53;9.80;;;6.23;;
60030;SDS011;45901;47.600;9.890;2022-12-07T10:56:04;16.10;;;7.83;;
60030;SDS011;45901;47.600;9.890;2022-12-07T10:59:21;8.97;;;5.50;;
60030;SDS011;45901;47.600;9.890;2022-12-07T11:02:22;9.53;;;6.87;;
60030;SDS011;45901;47.600;9.890;2022-12-07T11:05:05;8.80;;;6.47;;
60030;SDS011;45901;47.600;9.890;2022-12-07T11:07:47;8.63;;;6.17;;
60030;SDS011;45901;47.600;9.890;2022-12-07T11:10:29;13.63;;;9.50;;
60030;SDS011;45901;47.600;9.890;2022-12-07T11:13:18;10.00;;;7.00;;
60030;SDS011;45901;47.600;9.890;2022-12-07T11:19:06;9.10;;;5.97;;
60030;SDS011;45901;47.600;9.890;2022-12-07T11:21:51;7.63;;;6.10;;
60030;SDS011;45901;47.600;9.890;2022-12-07T11:24:26;7.80;;;5.60;;
60030;SDS011;45901;47.600;9.890;2022-12-07T11:27:06;8.33;;;6.37;;
60030;SDS011;45901;47.600;9.890;2022-12-07T11:29:51;10.00;;;7.13;;
60030;SDS011;45901;47.600;9.890;2022-12-07T11:32:41;9.73;;;7.03;;
60030;SDS011;45901;47.600;9.890;2022-12-07T11:35:40;9.50;;;6.83;;
60030;SDS011;45901;47.600;9.890;2022-12-07T11:38:24;13.57;;;6.87;;
60030;SDS011;45901;47.600;9.890;2022-12-07T11:41:02;10.90;;;7.33;;
60030;SDS011;45901;47.600;9.890;2022-12-07T11:43:46;10.10;;;7.33;;
60030;SDS011;45901;47.600;9.890;2022-12-07T11:46:22;10.77;;;7.57;;
60030;SDS011;45901;47.600;9.890;2022-12-07T11:48:55;10.53;;;7.37;;
60030;SDS011;45901;47.600;9.890;2022-12-07T11:51:30;11.90;;;7.57;;
60030;SDS011;45901;47.600;9.890;2022-12-07T11:54:05;11.03;;;7.93;;
60030;SDS011;45901;47.600;9.890;2022-12-07T11:56:42;11.93;;;8.23;;
60030;SDS011;45901;47.600;9.890;2022-12-07T11:59:13;13.07;;;8.77;;
60030;SDS011;45901;47.600;9.890;2022-12-07T12:01:52;11.90;;;8.40;;
60030;SDS011;45901;47.600;9.890;2022-12-07T12:04:25;13.23;;;8.57;;
60030;SDS011;45901;47.600;9.890;2022-12-07T12:07:07;16.93;;;10.00;;
60030;SDS011;45901;47.600;9.890;2022-12-07T12:09:45;16.57;;;10.53;;
60030;SDS011;45901;47.600;9.890;2022-12-07T12:12:25;15.50;;;9.27;;
60030;SDS011;45901;47.600;9.890;2022-12-07T12:15:28;15.70;;;10.03;;
60030;SDS011;45901;47.600;9.890;2022-12-07T12:21:26;18.57;;;9.83;;
60030;SDS011;45901;47.600;9.890;2022-12-07T12:23:57;14.87;;;9.90;;
60030;SDS011;45901;47.600;9.890;2022-12-07T12:26:30;15.70;;;10.47;;
60030;SDS011;45901;47.600;9.890;2022-12-07T12:29:01;12.40;;;9.03;;
60030;SDS011;45901;47.600;9.890;2022-12-07T12:31:36;13.67;;;9.20;;
60030;SDS011;45901;47.600;9.890;2022-12-07T12:37:13;10.80;;;7.33;;
60030;SDS011;45901;47.600;9.890;2022-12-07T12:58:54;13.10;;;8.07;;
60030;SDS011;45901;47.600;9.890;2022-12-07T13:01:55;10.73;;;7.57;;
60030;SDS011;45901;47.600;9.890;2022-12-07T13:13:32;12.77;;;7.40;;
60030;SDS011;45901;47.600;9.890;2022-12-07T13:25:29;10.93;;;6.50;;
60030;SDS011;45901;47.600;9.890;2022-12-07T13:28:08;11.90;;;7.47;;
60030;SDS011;45901;47.600;9.890;2022-12-07T13:30:47;16.97;;;8.40;;
60030;SDS011;45901;47.600;9.890;2022-12-07T13:33:28;15.10;;;9.37;;
60030;SDS011;45901;47.600;9.890;2022-12-07T13:35:56;14.27;;;8.53;;
60030;SDS011;45901;47.600;9.890;2022-12-07T13:38:27;17.60;;;9.80;;
60030;SDS011;45901;47.600;9.890;2022-12-07T13:41:01;14.13;;;8.33;;
60030;SDS011;45901;47.600;9.890;2022-12-07T13:43:43;12.30;;;7.43;;
60030;SDS011;45901;47.600;9.890;2022-12-07T13:46:12;11.00;;;7.07;;
60030;SDS011;45901;47.600;9.890;2022-12-07T13:48:44;11.10;;;6.50;;
60030;SDS011;45901;47.600;9.890;2022-12-07T13:51:16;10.13;;;6.07;;
60030;SDS011;45901;47.600;9.890;2022-12-07T13:53:48;18.70;;;10.00;;
60030;SDS011;45901;47.600;9.890;2022-12-07T13:56:17;14.57;;;8.03;;
60030;SDS011;45901;47.600;9.890;2022-12-07T13:58:47;14.90;;;7.77;;
60030;SDS011;45901;47.600;9.890;2022-12-07T14:01:14;14.07;;;7.70;;
60030;SDS011;45901;47.600;9.890;2022-12-07T14:03:41;15.03;;;7.90;;
60030;SDS011;45901;47.600;9.890;2022-12-07T14:06:14;15.80;;;7.23;;
60030;SDS011;45901;47.600;9.890;2022-12-07T14:09:17;13.83;;;7.93;;
60030;SDS011;45901;47.600;9.890;2022-12-07T14:11:47;14.00;;;8.13;;
60030;SDS011;45901;47.600;9.890;2022-12-07T14:14:17;13.10;;;7.60;;
60030;SDS011;45901;47.600;9.890;2022-12-07T14:16:57;15.10;;;8.80;;
60030;SDS011;45901;47.600;9.890;2022-12-07T14:19:42;12.73;;;7.23;;
60030;SDS011;45901;47.600;9.890;2022-12-07T14:22:21;16.33;;;9.10;;
60030;SDS011;45901;47.600;9.890;2022-12-07T14:24:58;20.33;;;10.70;;
60030;SDS011;45901;47.600;9.890;2022-12-07T14:27:30;15.50;;;8.70;;
60030;SDS011;45901;47.600;9.890;2022-12-07T14:30:01;16.23;;;9.40;;
60030;SDS011;45901;47.600;9.890;2022-12-07T14:32:29;17.50;;;10.50;;
60030;SDS011;45901;47.600;9.890;2022-12-07T14:35:00;17.27;;;10.27;;
60030;SDS011;45901;47.600;9.890;2022-12-07T14:37:35;17.30;;;9.43;;
60030;SDS011;45901;47.600;9.890;2022-12-07T14:40:04;14.53;;;8.27;;
60030;SDS011;45901;47.600;9.890;2022-12-07T14:42:33;15.27;;;8.60;;
60030;SDS011;45901;47.600;9.890;2022-12-07T14:45:01;16.27;;;9.00;;
60030;SDS011;45901;47.600;9.890;2022-12-07T14:47:33;17.77;;;9.53;;
60030;SDS011;45901;47.600;9.890;2022-12-07T14:50:02;21.17;;;9.93;;
60030;SDS011;45901;47.600;9.890;2022-12-07T14:52:31;15.53;;;8.77;;
60030;SDS011;45901;47.600;9.890;2022-12-07T14:55:02;17.83;;;9.57;;
60030;SDS011;45901;47.600;9.890;2022-12-07T14:57:47;18.57;;;9.63;;
60030;SDS011;45901;47.600;9.890;2022-12-07T15:00:19;18.23;;;9.87;;
60030;SDS011;45901;47.600;9.890;2022-12-07T15:02:49;17.67;;;9.80;;
60030;SDS011;45901;47.600;9.890;2022-12-07T15:05:18;18.17;;;9.50;;
60030;SDS011;45901;47.600;9.890;2022-12-07T15:08:04;17.00;;;7.90;;
60030;SDS011;45901;47.600;9.890;2022-12-07T15:10:32;13.57;;;7.97;;
60030;SDS011;45901;47.600;9.890;2022-12-07T15:13:05;17.10;;;8.93;;
60030;SDS011;45901;47.600;9.890;2022-12-07T15:15:52;15.73;;;8.43;;
60030;SDS011;45901;47.600;9.890;2022-12-07T15:18:22;15.00;;;8.57;;
60030;SDS011;45901;47.600;9.890;2022-12-07T15:20:52;18.73;;;9.40;;
60030;SDS011;45901;47.600;9.890;2022-12-07T15:23:19;20.47;;;10.20;;
60030;SDS011;45901;47.600;9.890;2022-12-07T15:25:48;16.57;;;9.83;;
60030;SDS011;45901;47.600;9.890;2022-12-07T15:28:17;18.90;;;10.37;;
60030;SDS011;45901;47.600;9.890;2022-12-07T15:30:44;16.60;;;9.60;;
60030;SDS011;45901;47.600;9.890;2022-12-07T15:33:12;18.97;;;10.17;;
60030;SDS011;45901;47.600;9.890;2022-12-07T15:35:39;15.73;;;8.70;;
60030;SDS011;45901;47.600;9.890;2022-12-07T15:38:09;16.27;;;8.63;;
60030;SDS011;45901;47.600;9.890;2022-12-07T15:40:37;16.57;;;9.57;;
60030;SDS011;45901;47.600;9.890;2022-12-07T15:43:04;16.40;;;8.70;;
60030;SDS011;45901;47.600;9.890;2022-12-07T15:45:52;14.60;;;8.40;;
60030;SDS011;45901;47.600;9.890;2022-12-07T15:48:18;14.77;;;8.07;;
60030;SDS011;45901;47.600;9.890;2022-12-07T15:50:45;17.43;;;10.10;;
60030;SDS011;45901;47.600;9.890;2022-12-07T15:53:14;15.13;;;8.90;;
60030;SDS011;45901;47.600;9.890;2022-12-07T15:55:43;17.13;;;9.53;;